Time;durP1;ratioP1;P1;durP2;ratioP2;P2;SDS_P1;SDS_P2;PMS_P1;PMS_P2;Temp;Humidity;BMP_temperature;BMP_pressure;BME280_temperature;BME280_humidity;BME280_pressure;Samples;Min_cycle;Max_cycle;Signal;HPM_P1;HPM_P2
2023/08/13 00:00:16;;;;;;;3.60;2.27;;;24.80;99.80;;;;;;5061824;28;20454;-86
2023/08/13 00:02:51;;;;;;;2.70;2.20;;;24.80;99.80;;;;;;5063866;28;20428;-86
2023/08/13 00:05:17;;;;;;;2.50;2.13;;;24.80;99.70;;;;;;5060793;28;20222;-86
2023/08/13 00:07:47;;;;;;;2.57;2.10;;;24.80;99.70;;;;;;5063474;28;20247;-86
2023/08/13 00:10:13;;;;;;;3.03;2.20;;;24.80;99.70;;;;;;5061273;28;20276;-86
2023/08/13 00:12:48;;;;;;;4.23;2.20;;;24.70;99.70;;;;;;5063096;28;20567;-86
2023/08/13 00:15:20;;;;;;;2.67;2.20;;;24.70;99.70;;;;;;5064461;28;20253;-86
2023/08/13 00:17:51;;;;;;;2.50;2.20;;;24.70;99.70;;;;;;5047933;28;20256;-86
2023/08/13 00:20:18;;;;;;;3.40;2.27;;;24.70;99.70;;;;;;5060766;28;20503;-86
2023/08/13 00:22:49;;;;;;;2.43;1.83;;;24.70;99.70;;;;;;5063720;28;20175;-85
2023/08/13 00:25:23;;;;;;;2.77;2.30;;;24.70;99.70;;;;;;5063494;28;20184;-86
2023/08/13 00:27:49;;;;;;;2.40;2.00;;;24.70;99.70;;;;;;5062695;28;20588;-86
2023/08/13 00:30:15;;;;;;;2.23;2.03;;;24.70;99.60;;;;;;5065544;28;20179;-85
2023/08/13 00:32:40;;;;;;;2.47;2.13;;;24.70;99.60;;;;;;5062788;28;20185;-85
2023/08/13 00:35:08;;;;;;;2.20;1.97;;;24.70;99.60;;;;;;5065259;28;20183;-86
2023/08/13 00:37:35;;;;;;;2.10;1.90;;;24.60;99.60;;;;;;5063497;28;20267;-86
2023/08/13 00:40:09;;;;;;;2.63;2.43;;;24.60;99.60;;;;;;5065282;28;20187;-86
2023/08/13 00:42:35;;;;;;;2.20;2.00;;;24.60;99.50;;;;;;5065606;28;20646;-86
2023/08/13 00:45:01;;;;;;;2.77;2.07;;;24.60;99.50;;;;;;5062883;28;20192;-86
2023/08/13 00:47:27;;;;;;;2.83;2.20;;;24.60;99.50;;;;;;5064981;28;20210;-86
2023/08/13 00:49:53;;;;;;;3.50;2.13;;;24.60;99.50;;;;;;5062377;28;20183;-86
2023/08/13 00:52:28;;;;;;;3.43;2.30;;;24.60;99.50;;;;;;5065427;28;20546;-86
2023/08/13 00:54:54;;;;;;;3.10;2.20;;;24.60;99.40;;;;;;5043407;28;20190;-86
2023/08/13 00:57:26;;;;;;;2.57;2.23;;;24.60;99.40;;;;;;5061805;28;20184;-86
2023/08/13 00:59:55;;;;;;;2.40;2.20;;;24.60;99.50;;;;;;5061357;28;20198;-86
2023/08/13 01:02:21;;;;;;;2.47;1.77;;;24.60;99.40;;;;;;5065777;28;20199;-86
2023/08/13 01:04:47;;;;;;;2.73;2.07;;;24.60;99.40;;;;;;5060224;28;20581;-86
2023/08/13 01:07:24;;;;;;;2.13;1.93;;;24.60;99.40;;;;;;5062650;28;20268;-86
2023/08/13 01:10:11;;;;;;;3.27;2.30;;;24.50;99.40;;;;;;5062600;28;20176;-86
2023/08/13 01:13:15;;;;;;;3.00;1.97;;;24.50;99.40;;;;;;5059337;28;20458;-86
2023/08/13 01:15:43;;;;;;;2.53;2.10;;;24.50;99.30;;;;;;5059714;28;20597;-86
2023/08/13 01:18:09;;;;;;;4.97;2.23;;;24.50;99.40;;;;;;5065192;28;20481;-86
2023/08/13 01:20:37;;;;;;;3.90;2.00;;;24.50;99.30;;;;;;5063177;28;20490;-86
2023/08/13 01:23:03;;;;;;;2.40;2.03;;;24.50;99.40;;;;;;5040722;28;20555;-86
2023/08/13 01:25:30;;;;;;;3.20;2.10;;;24.50;99.40;;;;;;5061367;28;20245;-86
2023/08/13 01:28:18;;;;;;;2.70;2.00;;;24.50;99.30;;;;;;5063936;28;20208;-85
2023/08/13 01:30:45;;;;;;;2.80;2.00;;;24.40;99.40;;;;;;5056312;28;20200;-86
2023/08/13 01:33:18;;;;;;;2.33;2.13;;;24.50;99.30;;;;;;5064042;28;20592;-86
2023/08/13 01:35:45;;;;;;;2.93;2.00;;;24.40;99.30;;;;;;5064433;28;20674;-86
2023/08/13 01:38:11;;;;;;;2.30;1.93;;;24.40;99.30;;;;;;5069130;28;20362;-85
2023/08/13 01:40:37;;;;;;;4.30;2.23;;;24.40;99.30;;;;;;5061338;28;20255;-86
2023/08/13 01:43:03;;;;;;;2.30;2.10;;;24.50;99.30;;;;;;5062847;28;20179;-86
2023/08/13 01:45:29;;;;;;;3.17;2.07;;;24.40;99.30;;;;;;5061437;28;20521;-85
2023/08/13 01:47:55;;;;;;;3.70;1.97;;;24.40;99.40;;;;;;5064173;28;20264;-86
2023/08/13 01:50:22;;;;;;;2.10;1.90;;;24.40;99.40;;;;;;5060891;28;20183;-86
2023/08/13 01:52:47;;;;;;;2.67;2.20;;;24.40;99.40;;;;;;5061631;28;20176;-86
2023/08/13 01:55:13;;;;;;;2.63;2.00;;;24.40;99.40;;;;;;5065675;28;20182;-85
2023/08/13 01:57:39;;;;;;;2.63;1.90;;;24.40;99.30;;;;;;5058997;28;20656;-85
2023/08/13 02:00:07;;;;;;;2.83;2.10;;;24.40;99.40;;;;;;5063143;28;20222;-86
2023/08/13 02:02:34;;;;;;;2.33;2.10;;;24.40;99.30;;;;;;5060541;28;20578;-85
2023/08/13 02:04:59;;;;;;;2.57;1.90;;;24.40;99.30;;;;;;5064775;28;20179;-85
2023/08/13 02:07:25;;;;;;;2.73;1.90;;;24.40;99.40;;;;;;5062652;28;20217;-85
2023/08/13 02:09:51;;;;;;;2.67;2.03;;;24.30;99.30;;;;;;5064123;28;20172;-85
2023/08/13 02:12:17;;;;;;;2.40;2.20;;;24.30;99.60;;;;;;5062144;28;20189;-86
2023/08/13 02:14:42;;;;;;;2.23;2.00;;;24.30;99.30;;;;;;5062958;28;20651;-86
2023/08/13 02:17:14;;;;;;;2.37;2.17;;;24.30;99.30;;;;;;5062575;28;20188;-86
2023/08/13 02:19:40;;;;;;;1.90;1.70;;;24.30;99.30;;;;;;5065409;28;20178;-86
2023/08/13 02:22:08;;;;;;;2.10;1.83;;;24.30;99.20;;;;;;5058032;28;20259;-86
2023/08/13 02:24:34;;;;;;;2.90;2.00;;;24.30;99.20;;;;;;5064399;28;20447;-86
2023/08/13 02:27:04;;;;;;;2.10;1.90;;;24.20;99.20;;;;;;5060309;28;20304;-86
2023/08/13 02:29:29;;;;;;;2.53;1.90;;;24.30;99.20;;;;;;5062965;28;20232;-86
2023/08/13 02:31:55;;;;;;;2.10;1.90;;;24.40;99.10;;;;;;5063049;28;20263;-86
2023/08/13 02:34:22;;;;;;;2.37;1.90;;;24.30;99.10;;;;;;5062767;28;20176;-86
2023/08/13 02:36:49;;;;;;;2.90;2.20;;;24.20;99.20;;;;;;5066168;28;20183;-85
2023/08/13 02:39:14;;;;;;;3.53;2.10;;;24.20;99.20;;;;;;5066262;28;20177;-86
2023/08/13 02:41:40;;;;;;;2.27;2.00;;;24.20;99.20;;;;;;5068644;28;20519;-86
2023/08/13 02:44:06;;;;;;;3.50;2.10;;;24.20;99.10;;;;;;5068419;28;20575;-86
2023/08/13 02:46:32;;;;;;;2.70;1.90;;;24.20;99.10;;;;;;5064763;28;20208;-86
2023/08/13 02:48:57;;;;;;;1.97;1.80;;;24.20;99.10;;;;;;5056771;28;20176;-86
2023/08/13 02:51:24;;;;;;;3.90;2.13;;;24.20;99.10;;;;;;5061060;28;20177;-86
2023/08/13 02:53:50;;;;;;;3.37;2.27;;;24.20;99.10;;;;;;5068206;28;20309;-86
2023/08/13 02:56:18;;;;;;;2.87;1.90;;;24.20;99.10;;;;;;5065245;28;20278;-86
2023/08/13 02:58:44;;;;;;;2.60;2.10;;;24.20;99.10;;;;;;5067539;28;20206;-85
2023/08/13 03:01:10;;;;;;;2.40;2.20;;;24.20;99.10;;;;;;5067298;28;20597;-85
2023/08/13 03:03:36;;;;;;;2.73;1.77;;;24.20;99.10;;;;;;5065723;28;20260;-86
2023/08/13 03:06:02;;;;;;;2.63;2.10;;;24.20;99.00;;;;;;5066538;28;20507;-85
2023/08/13 03:08:28;;;;;;;2.20;2.00;;;24.20;99.00;;;;;;5065126;28;20180;-86
2023/08/13 03:10:54;;;;;;;2.10;1.87;;;24.20;99.00;;;;;;5067562;28;20286;-86
2023/08/13 03:13:19;;;;;;;2.20;2.00;;;24.20;99.00;;;;;;5064921;28;20176;-86
2023/08/13 03:15:45;;;;;;;2.20;1.83;;;24.20;99.00;;;;;;5068939;28;20238;-86
2023/08/13 03:18:11;;;;;;;2.27;1.87;;;24.20;98.90;;;;;;5065130;28;20552;-85
2023/08/13 03:20:37;;;;;;;2.73;1.87;;;24.20;98.80;;;;;;5067574;28;20186;-86
2023/08/13 03:23:03;;;;;;;3.17;1.90;;;24.20;98.80;;;;;;5064919;28;20188;-85
2023/08/13 03:25:29;;;;;;;2.47;1.90;;;24.20;98.70;;;;;;5066040;28;20180;-85
2023/08/13 03:27:55;;;;;;;2.27;1.70;;;24.20;98.80;;;;;;5061876;28;20233;-85
2023/08/13 03:30:21;;;;;;;2.53;2.17;;;24.20;98.70;;;;;;5062475;28;20699;-85
2023/08/13 03:32:46;;;;;;;2.50;1.80;;;24.10;98.70;;;;;;5065014;28;20250;-85
2023/08/13 03:35:12;;;;;;;3.27;1.93;;;24.10;98.70;;;;;;5062803;28;20181;-85
2023/08/13 03:37:38;;;;;;;2.80;1.80;;;24.10;98.70;;;;;;5064647;28;20210;-85
2023/08/13 03:40:05;;;;;;;3.27;2.10;;;24.10;98.70;;;;;;5060210;28;20600;-85
2023/08/13 03:42:31;;;;;;;2.23;1.77;;;24.10;98.70;;;;;;5062499;28;20183;-86
2023/08/13 03:44:57;;;;;;;2.50;1.70;;;24.10;98.70;;;;;;5063304;28;20233;-86
2023/08/13 03:47:23;;;;;;;3.67;2.00;;;24.10;98.70;;;;;;5063267;28;20540;-86
2023/08/13 03:49:48;;;;;;;2.37;1.80;;;24.10;98.70;;;;;;5058130;28;20350;-85
2023/08/13 03:52:14;;;;;;;3.57;2.07;;;24.10;98.70;;;;;;5063669;28;20586;-86
2023/08/13 03:54:40;;;;;;;2.03;1.60;;;24.10;98.60;;;;;;5059182;28;20219;-86
2023/08/13 03:57:06;;;;;;;2.87;1.87;;;24.10;98.60;;;;;;5066074;28;20286;-86
2023/08/13 03:59:31;;;;;;;3.20;1.90;;;24.10;98.60;;;;;;5059998;28;20211;-86
2023/08/13 04:01:58;;;;;;;2.23;1.80;;;24.00;98.60;;;;;;5061020;28;20307;-86
2023/08/13 04:04:25;;;;;;;2.23;1.73;;;24.10;98.60;;;;;;5061913;28;20270;-86
2023/08/13 04:06:50;;;;;;;2.20;1.73;;;24.00;98.60;;;;;;5063459;28;20600;-85
2023/08/13 04:09:16;;;;;;;2.60;1.60;;;24.00;98.60;;;;;;5062414;28;20713;-85
2023/08/13 04:11:42;;;;;;;2.30;1.90;;;24.00;98.60;;;;;;5063544;28;20182;-85
2023/08/13 04:14:08;;;;;;;3.20;2.03;;;24.00;98.60;;;;;;5064261;28;20173;-85
2023/08/13 04:16:34;;;;;;;2.47;2.10;;;24.00;98.50;;;;;;5063925;28;20194;-85
2023/08/13 04:18:59;;;;;;;2.40;1.80;;;24.00;98.50;;;;;;5064759;28;20184;-86
2023/08/13 04:21:25;;;;;;;2.33;1.77;;;24.00;98.50;;;;;;5064309;28;20881;-86
2023/08/13 04:23:58;;;;;;;2.20;1.80;;;24.00;98.50;;;;;;5062077;28;20180;-86
2023/08/13 04:26:24;;;;;;;2.80;1.90;;;24.00;98.50;;;;;;5054875;28;20280;-86
2023/08/13 04:28:51;;;;;;;2.57;1.97;;;24.00;98.40;;;;;;5060019;28;20237;-86
2023/08/13 04:31:18;;;;;;;3.50;2.03;;;24.00;98.40;;;;;;5064573;28;20179;-86
2023/08/13 04:33:43;;;;;;;2.67;1.90;;;24.00;98.40;;;;;;5062513;28;20516;-86
2023/08/13 04:36:09;;;;;;;3.57;2.00;;;24.00;98.40;;;;;;5063106;28;20572;-86
2023/08/13 04:38:35;;;;;;;3.20;1.77;;;24.00;98.50;;;;;;5064340;28;20550;-86
2023/08/13 04:41:04;;;;;;;2.87;1.80;;;23.90;98.40;;;;;;5064363;28;20367;-86
2023/08/13 04:43:30;;;;;;;2.43;2.00;;;23.90;98.40;;;;;;5064531;28;20557;-86
2023/08/13 04:45:56;;;;;;;1.80;1.60;;;23.90;98.40;;;;;;5061282;28;20171;-86
2023/08/13 04:48:45;;;;;;;2.83;1.90;;;23.90;98.40;;;;;;5062730;28;20180;-86
2023/08/13 04:51:11;;;;;;;5.53;1.97;;;23.90;98.40;;;;;;5069334;28;20195;-86
2023/08/13 04:53:37;;;;;;;4.30;2.10;;;23.90;98.40;;;;;;5061325;28;20700;-85
2023/08/13 04:56:05;;;;;;;3.70;1.87;;;23.90;98.40;;;;;;5061501;28;20407;-86
2023/08/13 04:58:30;;;;;;;2.67;1.80;;;23.90;98.30;;;;;;5059586;28;20589;-86
2023/08/13 05:00:56;;;;;;;3.00;1.73;;;23.90;98.30;;;;;;5054027;28;20259;-86
2023/08/13 05:03:22;;;;;;;2.60;1.60;;;23.90;98.30;;;;;;5064825;28;20195;-86
2023/08/13 05:05:47;;;;;;;2.07;1.70;;;23.90;98.30;;;;;;5063089;28;20330;-86
2023/08/13 05:08:13;;;;;;;2.30;1.70;;;23.90;98.30;;;;;;5065246;28;20356;-86
2023/08/13 05:10:39;;;;;;;3.13;2.00;;;23.90;98.30;;;;;;5062058;28;20240;-86
2023/08/13 05:13:04;;;;;;;3.60;1.90;;;23.90;98.20;;;;;;5063946;28;20172;-86
2023/08/13 05:15:30;;;;;;;2.57;1.90;;;23.90;98.30;;;;;;5063158;28;20176;-86
2023/08/13 05:17:57;;;;;;;3.23;1.97;;;23.90;98.30;;;;;;5063870;28;20183;-86
2023/08/13 05:20:24;;;;;;;2.90;1.97;;;23.90;98.20;;;;;;5062275;28;20186;-86
2023/08/13 05:22:49;;;;;;;2.13;1.73;;;23.90;98.10;;;;;;5063960;28;20250;-86
2023/08/13 05:25:15;;;;;;;3.20;1.67;;;23.90;98.40;;;;;;5067709;28;20246;-86
2023/08/13 05:27:41;;;;;;;2.07;1.70;;;23.90;98.20;;;;;;5061566;28;20512;-86
2023/08/13 05:30:07;;;;;;;3.07;1.63;;;23.90;98.10;;;;;;5064782;28;20184;-86
2023/08/13 05:32:33;;;;;;;3.63;1.60;;;23.90;98.10;;;;;;5059319;28;20192;-86
2023/08/13 05:34:58;;;;;;;2.90;1.50;;;24.00;98.10;;;;;;5065113;28;20427;-86
2023/08/13 05:37:24;;;;;;;1.80;1.60;;;24.00;98.00;;;;;;5064044;28;20194;-86
2023/08/13 05:39:51;;;;;;;2.00;1.80;;;24.00;97.90;;;;;;5056903;28;20196;-86
2023/08/13 05:42:17;;;;;;;2.67;1.73;;;23.90;98.00;;;;;;5059853;28;20195;-86
2023/08/13 05:44:42;;;;;;;3.47;1.60;;;23.90;97.90;;;;;;5064403;28;20190;-86
2023/08/13 05:47:08;;;;;;;4.10;2.00;;;24.00;97.90;;;;;;5063160;28;20212;-86
2023/08/13 05:49:34;;;;;;;1.90;1.70;;;24.00;97.80;;;;;;5062387;28;20184;-86
2023/08/13 05:52:00;;;;;;;2.20;1.83;;;24.00;97.70;;;;;;5061627;28;20180;-86
2023/08/13 05:54:25;;;;;;;2.40;1.70;;;24.00;97.60;;;;;;5062125;28;20176;-86
2023/08/13 05:56:51;;;;;;;2.10;1.80;;;24.00;97.60;;;;;;5058966;28;20189;-86
2023/08/13 05:59:17;;;;;;;3.57;1.90;;;24.00;97.80;;;;;;5060416;28;20290;-86
2023/08/13 06:01:42;;;;;;;2.33;1.83;;;24.00;97.80;;;;;;5060319;28;20198;-86
2023/08/13 06:04:08;;;;;;;2.77;1.80;;;23.90;97.90;;;;;;5058982;28;20192;-86
2023/08/13 06:06:34;;;;;;;2.03;1.40;;;23.80;98.00;;;;;;5061862;28;20257;-86
2023/08/13 06:09:00;;;;;;;2.33;1.70;;;23.80;98.30;;;;;;5055595;28;20293;-86
2023/08/13 06:11:25;;;;;;;3.53;1.73;;;23.80;98.00;;;;;;5064148;28;20176;-86
2023/08/13 06:13:51;;;;;;;2.93;2.00;;;23.80;98.10;;;;;;5065151;28;20175;-86
2023/08/13 06:16:17;;;;;;;3.00;1.90;;;23.80;98.10;;;;;;5055910;28;20187;-86
2023/08/13 06:18:44;;;;;;;1.70;1.60;;;23.80;98.10;;;;;;5063346;28;20179;-86
2023/08/13 06:21:09;;;;;;;1.90;1.70;;;23.80;98.10;;;;;;5060901;28;20183;-86
2023/08/13 06:23:35;;;;;;;2.60;1.87;;;23.80;98.10;;;;;;5062763;28;20257;-86
2023/08/13 06:26:01;;;;;;;2.97;2.00;;;23.80;98.10;;;;;;5060293;28;20214;-86
2023/08/13 06:28:27;;;;;;;3.10;1.93;;;23.80;98.10;;;;;;5061387;28;20190;-86
2023/08/13 06:30:52;;;;;;;3.10;1.87;;;23.80;98.00;;;;;;5062596;28;20515;-86
2023/08/13 06:33:19;;;;;;;2.10;1.80;;;23.80;97.90;;;;;;5060723;28;20191;-86
2023/08/13 06:35:46;;;;;;;2.37;1.70;;;23.80;97.90;;;;;;5062001;28;20561;-86
2023/08/13 06:38:13;;;;;;;2.67;1.80;;;23.80;98.00;;;;;;5059964;28;20192;-86
2023/08/13 06:40:39;;;;;;;2.00;1.70;;;23.80;98.00;;;;;;5061315;28;20218;-86
2023/08/13 06:43:05;;;;;;;2.90;1.90;;;23.80;98.00;;;;;;5058533;28;20553;-86
2023/08/13 06:45:30;;;;;;;3.07;1.80;;;23.80;98.00;;;;;;5060794;28;20252;-86
2023/08/13 06:47:57;;;;;;;2.67;1.73;;;23.80;98.00;;;;;;5053520;28;20216;-86
2023/08/13 06:50:23;;;;;;;2.20;1.70;;;23.80;98.00;;;;;;5059291;28;20622;-86
2023/08/13 06:52:49;;;;;;;2.13;1.67;;;23.80;97.90;;;;;;5061347;28;20259;-86
2023/08/13 06:55:15;;;;;;;2.53;2.00;;;23.90;97.90;;;;;;5062188;28;20273;-86
2023/08/13 06:57:41;;;;;;;2.63;1.90;;;23.90;97.90;;;;;;5058743;28;20230;-86
2023/08/13 07:00:07;;;;;;;2.73;1.80;;;23.90;97.80;;;;;;5058925;28;20194;-86
2023/08/13 07:02:33;;;;;;;2.40;1.80;;;24.00;97.80;;;;;;5058046;28;20365;-86
2023/08/13 07:04:58;;;;;;;1.73;1.63;;;24.00;97.70;;;;;;5058379;28;20188;-86
2023/08/13 07:07:24;;;;;;;1.93;1.60;;;24.00;97.60;;;;;;5057486;28;20251;-86
2023/08/13 07:09:51;;;;;;;3.07;1.80;;;24.00;97.50;;;;;;5056812;28;20191;-86
2023/08/13 07:12:16;;;;;;;3.03;2.00;;;24.10;97.50;;;;;;5058575;28;20184;-86
2023/08/13 07:14:42;;;;;;;2.70;1.80;;;24.10;97.30;;;;;;5055848;28;20187;-86
2023/08/13 07:17:08;;;;;;;3.73;1.70;;;24.20;97.30;;;;;;5057589;28;20182;-86
2023/08/13 07:19:33;;;;;;;2.67;1.90;;;24.20;97.00;;;;;;5056185;28;20184;-86
2023/08/13 07:21:59;;;;;;;2.87;1.90;;;24.30;97.00;;;;;;5061453;28;20176;-86
2023/08/13 07:24:24;;;;;;;2.27;1.70;;;24.30;96.90;;;;;;5063610;28;20180;-86
2023/08/13 07:26:50;;;;;;;2.03;1.70;;;24.30;96.90;;;;;;5058275;28;20215;-86
2023/08/13 07:29:16;;;;;;;1.67;1.50;;;24.30;96.80;;;;;;5058017;28;20203;-86
2023/08/13 07:31:42;;;;;;;1.97;1.73;;;24.40;96.70;;;;;;5060527;28;20191;-86
2023/08/13 07:34:07;;;;;;;1.97;1.70;;;24.40;96.70;;;;;;5059061;28;20569;-86
2023/08/13 07:36:33;;;;;;;2.97;2.07;;;24.40;96.70;;;;;;5060694;28;20638;-86
2023/08/13 07:38:59;;;;;;;2.67;1.90;;;24.50;96.40;;;;;;5057658;28;20177;-86
2023/08/13 07:41:25;;;;;;;2.13;1.70;;;24.50;96.30;;;;;;5059178;28;20175;-86
2023/08/13 07:43:50;;;;;;;2.27;1.60;;;24.60;96.20;;;;;;5059573;28;20292;-86
2023/08/13 07:46:16;;;;;;;2.47;1.70;;;24.60;96.10;;;;;;5060016;28;20303;-86
2023/08/13 07:48:42;;;;;;;2.23;1.70;;;24.70;96.00;;;;;;5059265;28;20171;-86
2023/08/13 07:51:08;;;;;;;2.10;1.63;;;24.70;95.90;;;;;;5062635;28;20532;-86
2023/08/13 07:53:34;;;;;;;2.10;1.70;;;24.80;95.70;;;;;;5061988;28;20187;-85
2023/08/13 07:56:00;;;;;;;3.63;1.67;;;24.90;95.50;;;;;;5063882;28;20250;-85
2023/08/13 07:58:26;;;;;;;2.07;1.70;;;25.10;95.20;;;;;;5067222;28;20175;-85
2023/08/13 08:00:52;;;;;;;2.90;1.83;;;25.30;94.90;;;;;;5057314;28;20422;-85
2023/08/13 08:03:17;;;;;;;2.42;1.75;;;25.40;94.50;;;;;;5060753;28;20249;-85
2023/08/13 08:05:47;;;;;;;2.10;1.67;;;25.80;93.70;;;;;;5057163;28;20291;-85
2023/08/13 08:08:14;;;;;;;3.10;1.77;;;26.00;92.80;;;;;;5062636;28;20223;-85
2023/08/13 08:10:39;;;;;;;2.08;1.67;;;26.30;92.00;;;;;;5059429;28;20281;-85
2023/08/13 08:13:05;;;;;;;2.72;1.98;;;26.40;91.50;;;;;;5061046;28;20582;-85
2023/08/13 08:15:31;;;;;;;1.60;1.50;;;26.60;91.00;;;;;;5059002;28;20295;-85
2023/08/13 08:17:57;;;;;;;1.98;1.75;;;26.70;90.50;;;;;;5058484;28;20206;-85
2023/08/13 08:20:23;;;;;;;2.67;1.83;;;26.90;90.10;;;;;;5060669;28;20459;-86
2023/08/13 08:22:48;;;;;;;3.53;1.80;;;27.00;89.20;;;;;;5058103;28;20184;-85
2023/08/13 08:25:14;;;;;;;3.55;1.77;;;27.10;88.20;;;;;;5056319;28;20229;-85
2023/08/13 08:27:40;;;;;;;3.00;1.95;;;27.00;88.30;;;;;;5060289;28;20199;-86
2023/08/13 08:30:06;;;;;;;3.42;1.70;;;26.90;89.20;;;;;;5054784;28;20192;-86
2023/08/13 08:32:32;;;;;;;2.28;1.75;;;26.70;89.90;;;;;;5059222;28;20180;-86
2023/08/13 08:34:58;;;;;;;2.63;1.65;;;26.60;90.10;;;;;;5054128;28;20211;-85
2023/08/13 08:37:23;;;;;;;2.47;1.70;;;26.50;90.30;;;;;;5060319;28;20190;-85
2023/08/13 08:39:49;;;;;;;1.60;1.42;;;26.50;90.50;;;;;;5057879;28;20176;-85
2023/08/13 08:42:15;;;;;;;2.55;1.70;;;26.50;90.80;;;;;;5061683;28;20312;-85
2023/08/13 08:44:44;;;;;;;3.35;1.58;;;26.40;91.00;;;;;;5057996;28;20196;-85
2023/08/13 08:47:10;;;;;;;3.28;1.60;;;26.30;91.30;;;;;;5058044;28;20262;-85
2023/08/13 08:49:37;;;;;;;2.20;1.50;;;26.30;91.40;;;;;;5058175;28;20257;-85
2023/08/13 08:52:02;;;;;;;2.75;1.90;;;26.20;91.50;;;;;;5059716;28;20179;-84
2023/08/13 08:54:28;;;;;;;2.40;1.60;;;26.30;91.50;;;;;;5059003;28;20207;-85
2023/08/13 08:56:54;;;;;;;2.40;1.70;;;26.40;91.40;;;;;;5058258;28;20211;-85
2023/08/13 08:59:20;;;;;;;4.45;1.65;;;26.40;91.20;;;;;;5060658;28;20489;-85
2023/08/13 09:01:46;;;;;;;2.10;1.70;;;26.50;91.10;;;;;;5059642;28;20194;-85
2023/08/13 09:04:12;;;;;;;2.08;1.50;;;26.50;91.30;;;;;;5061062;28;20406;-85
2023/08/13 09:06:54;;;;;;;3.13;1.77;;;26.50;91.30;;;;;;5059228;28;20208;-86
2023/08/13 09:09:20;;;;;;;3.90;1.80;;;26.50;91.40;;;;;;5056562;28;20203;-85
2023/08/13 09:11:46;;;;;;;3.42;1.55;;;26.50;91.40;;;;;;5057979;28;20188;-85
2023/08/13 09:14:11;;;;;;;2.40;1.77;;;26.60;91.40;;;;;;5055727;28;20183;-85
2023/08/13 09:16:38;;;;;;;2.38;1.60;;;26.60;91.30;;;;;;5054245;28;20623;-85
2023/08/13 09:19:04;;;;;;;3.33;1.75;;;26.60;91.20;;;;;;5057400;28;20195;-85
2023/08/13 09:21:29;;;;;;;3.05;1.45;;;26.70;91.50;;;;;;5056502;28;20172;-85
2023/08/13 09:23:56;;;;;;;3.50;1.83;;;26.70;91.10;;;;;;5061279;28;20426;-85
2023/08/13 09:26:25;;;;;;;4.93;1.77;;;26.60;91.50;;;;;;5057905;28;20635;-85
2023/08/13 09:28:51;;;;;;;3.85;1.70;;;26.60;91.80;;;;;;5059590;28;20180;-85
2023/08/13 09:31:17;;;;;;;3.40;1.90;;;26.60;91.90;;;;;;5058521;28;20179;-85
2023/08/13 09:33:45;;;;;;;4.13;2.00;;;26.60;91.90;;;;;;5055835;28;20180;-85
2023/08/13 09:36:11;;;;;;;3.67;1.60;;;26.50;91.80;;;;;;5055279;28;20531;-85
2023/08/13 09:38:37;;;;;;;2.45;1.60;;;26.60;91.90;;;;;;5054662;28;20176;-85
2023/08/13 09:41:14;;;;;;;2.50;1.70;;;26.50;91.80;;;;;;5055491;28;20503;-89
2023/08/13 09:43:43;;;;;;;3.90;1.70;;;26.60;91.70;;;;;;5052662;28;20399;-84
2023/08/13 09:46:10;;;;;;;2.78;1.80;;;26.60;91.60;;;;;;5054601;28;20579;-85
2023/08/13 09:48:36;;;;;;;3.35;1.50;;;26.70;91.60;;;;;;5054947;28;20187;-85
2023/08/13 09:51:04;;;;;;;2.40;1.90;;;26.70;91.50;;;;;;5056316;28;20272;-85
2023/08/13 09:53:31;;;;;;;2.42;1.63;;;26.70;91.40;;;;;;5054332;28;20439;-85
2023/08/13 09:56:03;;;;;;;3.10;1.90;;;26.80;91.30;;;;;;5054919;28;20183;-85
2023/08/13 09:58:29;;;;;;;3.10;1.50;;;26.80;91.20;;;;;;5056085;28;20329;-85
2023/08/13 10:00:54;;;;;;;2.58;1.58;;;26.90;91.10;;;;;;5054446;28;20180;-84
2023/08/13 10:03:22;;;;;;;2.42;1.70;;;26.90;90.90;;;;;;5056262;28;20225;-85
2023/08/13 10:05:48;;;;;;;2.22;1.60;;;27.00;90.90;;;;;;5053836;28;20195;-84
2023/08/13 10:08:15;;;;;;;2.47;1.42;;;26.90;90.90;;;;;;5052851;28;20261;-84
2023/08/13 10:10:41;;;;;;;2.72;1.50;;;26.90;90.80;;;;;;5057298;28;20184;-85
2023/08/13 10:13:07;;;;;;;4.05;1.65;;;27.00;90.80;;;;;;5056156;28;20176;-84
2023/08/13 10:15:35;;;;;;;2.38;1.65;;;27.00;90.70;;;;;;5054822;28;20219;-84
2023/08/13 10:18:02;;;;;;;5.82;1.75;;;27.00;90.70;;;;;;5057051;28;20253;-84
2023/08/13 10:20:29;;;;;;;3.13;1.60;;;27.10;90.60;;;;;;5060290;28;20214;-84
2023/08/13 10:22:54;;;;;;;2.60;1.70;;;27.10;90.40;;;;;;5056577;28;20204;-84
2023/08/13 10:25:29;;;;;;;3.20;1.50;;;27.20;90.30;;;;;;5059466;28;20226;-83
2023/08/13 10:27:55;;;;;;;3.85;1.85;;;27.20;90.20;;;;;;5039051;28;20774;-84
2023/08/13 10:30:21;;;;;;;2.70;1.67;;;27.30;90.00;;;;;;5056606;28;20172;-84
2023/08/13 10:33:00;;;;;;;3.72;1.40;;;27.40;89.70;;;;;;5054154;28;20188;-84
2023/08/13 10:35:42;;;;;;;3.42;1.55;;;27.50;89.50;;;;;;5053331;28;20194;-84
2023/08/13 10:38:08;;;;;;;3.00;1.52;;;27.40;89.50;;;;;;5053673;28;20439;-83
2023/08/13 10:40:35;;;;;;;1.67;1.30;;;27.30;89.30;;;;;;5052031;28;20219;-84
2023/08/13 10:43:03;;;;;;;2.72;1.50;;;27.40;89.60;;;;;;5050343;28;20227;-83
2023/08/13 10:45:36;;;;;;;4.15;1.48;;;27.30;89.50;;;;;;5055324;28;20214;-83
2023/08/13 10:48:05;;;;;;;2.40;1.52;;;27.30;89.90;;;;;;5050518;28;20212;-83
2023/08/13 10:50:38;;;;;;;2.20;1.50;;;27.30;90.10;;;;;;5054580;28;20188;-83
2023/08/13 10:53:09;;;;;;;2.55;1.50;;;27.30;90.00;;;;;;5058951;28;20245;-83
2023/08/13 10:55:49;;;;;;;3.42;1.40;;;27.30;90.00;;;;;;5036292;28;20257;-83
2023/08/13 10:58:22;;;;;;;2.42;1.50;;;27.30;90.10;;;;;;5056449;28;20744;-83
2023/08/13 11:00:48;;;;;;;4.20;1.90;;;27.30;90.10;;;;;;5052021;28;20555;-83
2023/08/13 11:03:22;;;;;;;5.55;1.77;;;27.30;90.20;;;;;;5063062;28;20204;-83
2023/08/13 11:05:54;;;;;;;2.95;1.70;;;27.30;90.20;;;;;;5037311;28;20181;-84
2023/08/13 11:08:23;;;;;;;3.25;1.42;;;27.30;90.20;;;;;;5056884;28;20222;-84
2023/08/13 11:10:52;;;;;;;3.22;1.50;;;27.20;90.40;;;;;;5058414;28;20184;-83
2023/08/13 11:13:20;;;;;;;2.58;1.60;;;27.20;90.50;;;;;;5057642;28;20175;-83
2023/08/13 11:15:55;;;;;;;3.97;1.77;;;27.30;90.50;;;;;;5052092;28;20180;-84
2023/08/13 11:18:21;;;;;;;3.30;1.48;;;27.20;90.40;;;;;;5058475;28;20191;-84
2023/08/13 11:20:48;;;;;;;2.20;1.55;;;27.30;90.50;;;;;;5058418;28;20302;-83
2023/08/13 11:23:15;;;;;;;4.40;1.40;;;27.30;90.60;;;;;;5058191;28;20256;-84
2023/08/13 11:25:51;;;;;;;2.97;1.63;;;27.20;90.70;;;;;;5060581;28;20183;-84
2023/08/13 11:28:27;;;;;;;2.42;1.33;;;27.20;90.90;;;;;;5053188;28;20533;-83
2023/08/13 11:30:55;;;;;;;2.60;1.30;;;27.10;91.00;;;;;;5059084;28;20495;-84
2023/08/13 11:33:20;;;;;;;4.38;1.80;;;27.20;91.10;;;;;;5056236;28;20600;-83
2023/08/13 11:35:57;;;;;;;2.35;1.60;;;27.20;91.10;;;;;;5057641;28;20640;-83
2023/08/13 11:38:23;;;;;;;2.45;1.50;;;27.20;91.10;;;;;;5052682;28;20246;-83
2023/08/13 11:40:49;;;;;;;5.60;1.50;;;27.20;91.10;;;;;;5057792;28;20377;-82
2023/08/13 11:43:18;;;;;;;4.82;1.58;;;27.30;91.10;;;;;;5055024;28;20186;-83
2023/08/13 11:45:44;;;;;;;6.43;1.67;;;27.30;91.30;;;;;;5055653;28;20342;-83
2023/08/13 11:48:31;;;;;;;3.58;1.50;;;27.20;91.40;;;;;;5056265;28;20470;-83
2023/08/13 11:51:22;;;;;;;2.85;1.50;;;27.30;91.20;;;;;;5047595;28;20652;-83
2023/08/13 11:53:49;;;;;;;4.25;1.52;;;27.20;91.30;;;;;;5068735;28;20188;-83
2023/08/13 11:56:16;;;;;;;4.85;1.65;;;27.20;91.30;;;;;;5056159;28;20183;-83
2023/08/13 11:58:42;;;;;;;3.38;1.55;;;27.30;91.30;;;;;;5060252;28;20360;-83
2023/08/13 12:01:12;;;;;;;3.90;1.63;;;27.30;91.20;;;;;;5059066;28;20234;-83
2023/08/13 12:03:40;;;;;;;3.60;1.70;;;27.30;91.70;;;;;;5056344;28;20226;-83
2023/08/13 12:06:06;;;;;;;5.28;1.40;;;27.30;91.40;;;;;;5058615;28;20415;-83
2023/08/13 12:08:32;;;;;;;2.65;1.45;;;27.30;91.50;;;;;;5059834;28;20203;-84
2023/08/13 12:10:58;;;;;;;2.60;1.50;;;27.30;91.40;;;;;;5065500;28;20175;-83
2023/08/13 12:13:25;;;;;;;3.35;1.58;;;27.30;91.50;;;;;;5055305;28;20184;-83
2023/08/13 12:15:50;;;;;;;3.90;1.85;;;27.30;91.50;;;;;;5059714;28;20245;-83
2023/08/13 12:18:16;;;;;;;2.55;1.50;;;27.30;91.50;;;;;;5055009;28;20184;-83
2023/08/13 12:20:43;;;;;;;3.83;1.70;;;27.30;91.50;;;;;;5059406;28;20490;-83
2023/08/13 12:23:08;;;;;;;2.85;1.52;;;27.30;91.50;;;;;;5058395;28;20180;-83
2023/08/13 12:25:34;;;;;;;2.97;1.42;;;27.30;91.50;;;;;;5060636;28;20183;-83
2023/08/13 12:28:00;;;;;;;2.00;1.55;;;27.40;91.50;;;;;;5056910;28;20739;-83
2023/08/13 12:30:26;;;;;;;3.70;1.50;;;27.40;91.50;;;;;;5055200;28;20201;-83
2023/08/13 12:32:52;;;;;;;2.78;1.55;;;27.40;91.50;;;;;;5056663;28;20175;-83
2023/08/13 12:35:18;;;;;;;3.15;1.38;;;27.40;91.50;;;;;;5050443;28;20204;-83
2023/08/13 12:37:47;;;;;;;3.58;1.40;;;27.40;91.50;;;;;;5058995;28;20218;-83
2023/08/13 12:40:13;;;;;;;2.80;1.88;;;27.40;91.50;;;;;;5056155;28;20180;-83
2023/08/13 12:42:39;;;;;;;1.85;1.45;;;27.40;91.50;;;;;;5059869;28;20171;-83
2023/08/13 12:45:06;;;;;;;2.88;1.67;;;27.40;91.50;;;;;;5055479;28;20179;-83
2023/08/13 12:47:36;;;;;;;2.40;1.45;;;27.40;91.50;;;;;;5055417;28;20348;-83